Tenino, Washington
Current Conditions -  °F | °C
As of 3:54 PM on Sunday 21 Dec 2014 (Local Time) from KOLM Reporting Station
Scattered Clouds Scattered Clouds  
Wind Chill: 50°   Ceiling: Unl
Heat Index: 50°   Visibility: 10mi
Dew Point: 47°   Wind: 0mph
Humidity: 89%   Direction: NA
Pressure: 30.06"   Gusts: NA
Location:  46.86°N, 122.85°W
Report Text: KOLM 212354Z 00000KT 10SM FEW035 SCT049 SCT100 10/08 A3006 RMK AO2 RAE43 SLP179 P0004 60005 T01000083 10128 20100 51021
Loading
Personal Weather Stations






























Interactive Weather Map New forecast layout! Learn more

10-Day Weather Forecast

Advertisements
Track Severe Weather on mobile